createdAt,value
2023-02-24T00:02:20.344Z,75.59
2023-02-24T00:05:08.268Z,75.47
2023-02-24T00:07:49.358Z,75.40
2023-02-24T00:10:30.239Z,75.29
2023-02-24T00:13:12.370Z,75.05
2023-02-24T00:15:53.218Z,75.01
2023-02-24T00:18:41.267Z,75.03
2023-02-24T00:21:17.125Z,75.03
2023-02-24T00:24:06.235Z,75.00
2023-02-24T00:26:41.572Z,74.86
2023-02-24T00:29:48.254Z,74.66
2023-02-24T00:32:30.369Z,74.65
2023-02-24T00:35:12.424Z,74.59
2023-02-24T00:37:58.241Z,74.44
2023-02-24T00:40:41.128Z,74.49
2023-02-24T00:43:22.227Z,74.14
2023-02-24T00:46:10.435Z,74.53
2023-02-24T00:48:46.651Z,74.81
2023-02-24T00:51:37.228Z,74.76
2023-02-24T00:54:15.235Z,74.89
2023-02-24T00:57:03.219Z,74.99
2023-02-24T00:59:45.219Z,75.11
2023-02-24T01:02:26.978Z,75.30
2023-02-24T01:05:16.214Z,75.50
2023-02-24T01:07:59.343Z,75.48
2023-02-24T01:11:14.285Z,75.32
2023-02-24T01:14:02.330Z,75.30
2023-02-24T01:16:37.471Z,75.26
2023-02-24T01:19:27.220Z,75.14
2023-02-24T01:22:09.348Z,75.21
2023-02-24T01:25:04.240Z,75.32
2023-02-24T01:27:52.227Z,75.45
2023-02-24T01:30:27.380Z,75.64
2023-02-24T01:33:15.246Z,75.76
2023-02-24T01:35:50.352Z,75.80
2023-02-24T01:38:38.208Z,75.71
2023-02-24T01:41:16.537Z,75.76
2023-02-24T01:44:05.216Z,75.73
2023-02-24T01:46:41.387Z,75.83
2023-02-24T01:49:45.222Z,75.84
2023-02-24T01:52:30.751Z,75.86
2023-02-24T01:55:27.212Z,75.91
2023-02-24T01:58:04.829Z,76.02
2023-02-24T02:00:54.249Z,76.12
2023-02-24T02:03:38.212Z,76.02
2023-02-24T02:06:33.224Z,75.84
2023-02-24T02:09:22.226Z,75.79
2023-02-24T02:12:04.204Z,75.71
2023-02-24T02:15:02.233Z,75.57
2023-02-24T02:18:02.222Z,75.55
2023-02-24T02:21:09.011Z,75.38
2023-02-24T02:24:11.218Z,74.96
2023-02-24T02:27:36.230Z,74.61
2023-02-24T02:30:36.265Z,74.45
2023-02-24T02:33:52.220Z,74.48
2023-02-24T02:36:58.270Z,74.34
2023-02-24T02:40:23.306Z,74.50
2023-02-24T02:43:17.558Z,74.61
2023-02-24T02:46:16.356Z,74.89
2023-02-24T02:48:58.361Z,74.92
2023-02-24T02:51:55.215Z,74.99
2023-02-24T02:54:33.345Z,75.09
2023-02-24T02:57:25.225Z,75.07
2023-02-24T03:00:11.731Z,75.01
2023-02-24T03:03:04.194Z,75.04
2023-02-24T03:05:46.682Z,75.00
2023-02-24T03:08:37.273Z,74.94
2023-02-24T03:11:22.401Z,74.91
2023-02-24T03:14:12.217Z,74.83
2023-02-24T03:16:56.208Z,74.60
2023-02-24T03:19:46.211Z,74.26
2023-02-24T03:22:44.206Z,74.23
2023-02-24T03:25:28.940Z,74.28
2023-02-24T03:28:24.298Z,74.32
2023-02-24T03:31:07.474Z,74.39
2023-02-24T03:34:18.212Z,74.65
2023-02-24T03:36:54.663Z,74.75
2023-02-24T03:39:43.228Z,74.64
2023-02-24T03:42:19.248Z,74.71
2023-02-24T03:45:07.216Z,74.61
2023-02-24T03:47:41.822Z,74.52
2023-02-24T03:50:38.269Z,74.66
2023-02-24T03:53:22.732Z,74.69
2023-02-24T03:56:18.239Z,74.61
2023-02-24T03:59:18.974Z,74.57
2023-02-24T04:02:32.232Z,74.77
2023-02-24T04:05:15.701Z,75.18
2023-02-24T04:08:14.219Z,75.67
2023-02-24T04:10:54.879Z,76.00
2023-02-24T04:13:57.201Z,76.40
2023-02-24T04:16:40.971Z,76.78
2023-02-24T04:19:34.206Z,77.03
2023-02-24T04:22:32.181Z,77.27
2023-02-24T04:25:31.202Z,77.19
2023-02-24T04:28:13.696Z,77.33
2023-02-24T04:31:04.284Z,77.28
2023-02-24T04:33:38.960Z,77.42
2023-02-24T04:36:27.199Z,77.29
2023-02-24T04:39:01.699Z,77.07
2023-02-24T04:41:50.300Z,76.97
2023-02-24T04:44:26.256Z,76.91
2023-02-24T04:47:14.197Z,76.89
2023-02-24T04:49:55.209Z,76.90
2023-02-24T04:52:36.320Z,76.88
2023-02-24T04:55:17.192Z,76.98
2023-02-24T04:58:04.341Z,77.41
2023-02-24T05:00:48.188Z,77.65
2023-02-24T05:03:31.335Z,77.80
2023-02-24T05:06:13.215Z,78.13
2023-02-24T05:08:54.332Z,78.62
2023-02-24T05:11:41.192Z,78.93
2023-02-24T05:14:25.234Z,79.19
2023-02-24T05:17:13.201Z,79.56
2023-02-24T05:20:13.188Z,79.96
2023-02-24T05:23:01.195Z,80.28
2023-02-24T05:25:37.983Z,80.71
2023-02-24T05:28:29.196Z,81.43
2023-02-24T05:31:22.503Z,81.74
2023-02-24T05:34:00.356Z,81.80
2023-02-24T05:36:53.203Z,81.64
2023-02-24T05:39:35.221Z,81.80
2023-02-24T05:42:17.407Z,82.06
2023-02-24T05:44:58.184Z,82.14
2023-02-24T05:47:40.319Z,82.20
2023-02-24T05:50:21.240Z,82.11
2023-02-24T05:53:03.647Z,82.05
2023-02-24T05:55:45.189Z,82.01
2023-02-24T05:58:29.252Z,81.95
2023-02-24T06:01:23.271Z,81.97
2023-02-24T06:04:14.176Z,81.80
2023-02-24T06:06:55.246Z,81.76
2023-02-24T06:09:47.187Z,81.76
2023-02-24T06:12:23.440Z,81.71
2023-02-24T06:15:14.228Z,81.85
2023-02-24T06:18:09.165Z,81.65
2023-02-24T06:20:58.190Z,81.56
2023-02-24T06:23:56.179Z,81.22
2023-02-24T06:26:50.198Z,81.07
2023-02-24T06:29:29.847Z,81.08
2023-02-24T06:32:19.294Z,81.04
2023-02-24T06:34:54.364Z,80.82
2023-02-24T06:37:42.336Z,80.61
2023-02-24T06:40:18.392Z,80.51
2023-02-24T06:43:06.236Z,80.18
2023-02-24T06:45:48.202Z,80.01
2023-02-24T06:48:43.181Z,79.98
2023-02-24T06:51:31.158Z,79.99
2023-02-24T06:54:06.451Z,79.79
2023-02-24T06:56:54.185Z,79.75
2023-02-24T06:59:35.186Z,79.62
2023-02-24T07:02:24.173Z,79.63
2023-02-24T07:04:59.318Z,79.58
2023-02-24T07:07:52.172Z,79.57
2023-02-24T07:10:27.380Z,79.45
2023-02-24T07:13:16.195Z,79.30
2023-02-24T07:15:51.323Z,79.30
2023-02-24T07:18:43.153Z,79.10
2023-02-24T07:21:30.207Z,78.79
2023-02-24T07:24:13.725Z,78.51
2023-02-24T07:27:01.198Z,78.35
2023-02-24T07:29:44.193Z,77.90
2023-02-24T07:32:25.782Z,77.77
2023-02-24T07:35:07.182Z,77.53
2023-02-24T07:37:57.156Z,77.39
2023-02-24T07:40:43.172Z,77.19
2023-02-24T07:43:24.390Z,76.97
2023-02-24T07:46:05.247Z,77.02
2023-02-24T07:48:47.298Z,77.10
2023-02-24T07:51:31.189Z,77.08
2023-02-24T07:54:13.100Z,77.05
2023-02-24T07:57:03.232Z,76.93
2023-02-24T07:59:54.190Z,76.82
2023-02-24T08:02:29.493Z,76.96
2023-02-24T08:05:17.217Z,76.97
2023-02-24T08:07:59.163Z,76.94
2023-02-24T08:10:41.101Z,77.38
2023-02-24T08:13:22.180Z,77.30
2023-02-24T08:16:03.366Z,77.32
2023-02-24T08:18:47.407Z,77.34
2023-02-24T08:21:28.377Z,77.77
2023-02-24T08:24:11.193Z,78.27
2023-02-24T08:27:13.263Z,78.36
2023-02-24T08:30:04.128Z,78.56
2023-02-24T08:32:59.161Z,78.49
2023-02-24T08:35:43.143Z,78.49
2023-02-24T08:38:39.788Z,78.31
2023-02-24T08:41:24.471Z,78.08
2023-02-24T08:44:05.300Z,77.87
2023-02-24T08:46:47.174Z,77.82
2023-02-24T08:49:40.240Z,77.42
2023-02-24T08:52:14.681Z,76.93
2023-02-24T08:55:06.185Z,76.50
2023-02-24T08:57:47.168Z,76.01
2023-02-24T09:00:48.254Z,76.11
2023-02-24T09:03:40.181Z,75.77
2023-02-24T09:06:27.351Z,75.30
2023-02-24T09:09:24.194Z,75.11
2023-02-24T09:12:06.305Z,75.29
2023-02-24T09:14:49.158Z,74.80
2023-02-24T09:17:41.092Z,75.07
2023-02-24T09:20:32.161Z,75.13
2023-02-24T09:23:07.858Z,75.10
2023-02-24T09:26:01.157Z,75.43
2023-02-24T09:28:48.863Z,75.31
2023-02-24T09:31:47.409Z,75.35
2023-02-24T09:34:30.238Z,75.33
2023-02-24T09:37:32.199Z,75.41
2023-02-24T09:40:16.285Z,75.24
2023-02-24T09:43:05.269Z,75.01
2023-02-24T09:45:40.527Z,74.96
2023-02-24T09:48:51.283Z,74.88
2023-02-24T09:51:49.250Z,74.90
2023-02-24T09:54:24.851Z,74.97
2023-02-24T09:57:18.192Z,74.68
2023-02-24T10:00:30.263Z,74.27
2023-02-24T10:03:27.163Z,73.58
2023-02-24T10:06:12.456Z,72.86
2023-02-24T10:09:18.164Z,72.57
2023-02-24T10:12:04.533Z,72.76
2023-02-24T10:15:25.169Z,72.73
2023-02-24T10:18:53.223Z,72.67
2023-02-24T10:22:07.162Z,72.48
2023-02-24T10:25:01.719Z,72.63
2023-02-24T10:27:52.261Z,72.16
2023-02-24T10:30:50.401Z,72.07
2023-02-24T10:33:45.265Z,71.92
2023-02-24T10:36:42.144Z,71.94
2023-02-24T10:39:40.161Z,71.48
2023-02-24T10:42:38.156Z,71.33
2023-02-24T10:45:24.024Z,71.13
2023-02-24T10:48:15.517Z,70.10
2023-02-24T10:51:15.463Z,70.01
2023-02-24T10:54:21.174Z,69.66
2023-02-24T10:57:08.298Z,69.40
2023-02-24T11:00:58.229Z,69.16
2023-02-24T11:03:43.365Z,69.15
2023-02-24T11:06:47.156Z,69.25
2023-02-24T11:09:32.422Z,68.38
2023-02-24T11:12:46.145Z,67.52
2023-02-24T11:15:50.898Z,67.46
2023-02-24T11:18:40.307Z,66.59
2023-02-24T11:21:19.703Z,66.62
2023-02-24T11:24:09.136Z,66.87
2023-02-24T11:27:05.303Z,65.68
2023-02-24T11:29:56.138Z,65.26
2023-02-24T11:32:49.973Z,63.84
2023-02-24T11:35:55.136Z,64.69
2023-02-24T11:39:08.369Z,64.10
2023-02-24T11:42:14.774Z,63.16
2023-02-24T11:45:05.139Z,63.17
2023-02-24T11:47:50.855Z,62.29
2023-02-24T11:50:56.214Z,62.44
2023-02-24T11:53:58.304Z,62.45
2023-02-24T11:57:06.138Z,63.20
2023-02-24T11:59:58.141Z,62.78
2023-02-24T12:02:51.167Z,63.22
2023-02-24T12:05:37.288Z,64.07
2023-02-24T12:08:38.151Z,64.20
2023-02-24T12:11:54.335Z,63.06
2023-02-24T12:14:41.166Z,62.32
2023-02-24T12:17:47.395Z,61.96
2023-02-24T12:20:55.251Z,61.70
2023-02-24T12:23:41.339Z,61.27
2023-02-24T12:26:32.253Z,61.16
2023-02-24T12:29:42.750Z,61.33
2023-02-24T12:32:37.859Z,61.21
2023-02-24T12:35:36.143Z,61.93
2023-02-24T12:38:39.139Z,62.14
2023-02-24T12:41:39.151Z,62.95
2023-02-24T12:44:33.151Z,63.86
2023-02-24T12:47:28.132Z,64.29
2023-02-24T12:50:23.864Z,64.62
2023-02-24T12:53:38.218Z,65.47
2023-02-24T12:56:41.155Z,65.57
2023-02-24T12:59:32.164Z,65.40
2023-02-24T13:02:12.016Z,65.06
2023-02-24T13:05:12.152Z,65.53
2023-02-24T13:08:16.241Z,65.97
2023-02-24T13:11:32.232Z,66.30
2023-02-24T13:14:31.145Z,66.53
2023-02-24T13:17:17.829Z,66.64
2023-02-24T13:20:01.148Z,67.25
2023-02-24T13:22:56.125Z,67.97
2023-02-24T13:25:49.138Z,68.20
2023-02-24T13:28:44.152Z,68.15
2023-02-24T13:31:23.897Z,67.73
2023-02-24T13:34:36.139Z,67.83
2023-02-24T13:37:11.672Z,67.53
2023-02-24T13:39:59.657Z,67.69
2023-02-24T13:42:38.270Z,67.95
2023-02-24T13:45:28.132Z,67.80
2023-02-24T13:48:02.260Z,68.24
2023-02-24T13:51:25.193Z,68.49
2023-02-24T13:54:32.127Z,68.56
2023-02-24T13:57:44.141Z,68.77
2023-02-24T14:00:32.696Z,65.93
2023-02-24T14:03:23.148Z,64.93
2023-02-24T14:06:05.323Z,64.66
2023-02-24T14:08:46.143Z,63.81
2023-02-24T14:11:31.352Z,63.36
2023-02-24T14:14:12.357Z,62.78
2023-02-24T14:16:58.678Z,62.41
2023-02-24T14:19:40.264Z,61.94
2023-02-24T14:22:34.348Z,61.05
2023-02-24T14:25:25.339Z,59.40
2023-02-24T14:28:13.129Z,60.46
2023-02-24T14:30:48.458Z,62.23
2023-02-24T14:33:40.258Z,63.98
2023-02-24T14:36:32.183Z,64.67
2023-02-24T14:39:25.283Z,65.37
2023-02-24T14:42:14.593Z,66.22
2023-02-24T14:45:04.217Z,66.69
2023-02-24T14:47:39.318Z,67.44
2023-02-24T14:50:33.212Z,67.67
2023-02-24T14:53:15.482Z,67.73
2023-02-24T14:56:07.419Z,67.21
2023-02-24T14:58:47.958Z,66.70
2023-02-24T15:01:49.754Z,66.48
2023-02-24T15:04:37.199Z,66.77
2023-02-24T15:08:01.574Z,66.80
2023-02-24T15:11:00.253Z,67.26
2023-02-24T15:13:59.233Z,67.98
2023-02-24T15:16:42.558Z,68.10
2023-02-24T15:20:01.674Z,68.48
2023-02-24T15:23:03.216Z,68.90
2023-02-24T15:25:59.240Z,69.45
2023-02-24T15:28:47.206Z,70.14
2023-02-24T15:31:33.304Z,70.65
2023-02-24T15:34:33.154Z,71.30
2023-02-24T15:37:31.110Z,71.87
2023-02-24T15:40:21.005Z,72.39
2023-02-24T15:43:17.286Z,72.69
2023-02-24T15:45:59.114Z,73.05
2023-02-24T15:48:57.120Z,73.23
2023-02-24T15:51:54.319Z,73.81
2023-02-24T15:54:43.350Z,74.32
2023-02-24T15:57:38.269Z,75.26
2023-02-24T16:00:30.128Z,75.91
2023-02-24T16:03:12.119Z,76.05
2023-02-24T16:06:07.188Z,76.72
2023-02-24T16:08:56.277Z,77.67
2023-02-24T16:11:34.303Z,78.11
2023-02-24T16:14:24.185Z,78.27
2023-02-24T16:17:06.579Z,78.99
2023-02-24T16:19:48.339Z,79.82
2023-02-24T16:22:30.252Z,79.59
2023-02-24T16:25:12.120Z,79.47
2023-02-24T16:27:57.524Z,79.76
2023-02-24T16:30:39.223Z,79.52
2023-02-24T16:33:23.916Z,79.38
2023-02-24T16:36:06.774Z,79.29
2023-02-24T16:38:53.408Z,79.17
2023-02-24T16:41:36.126Z,79.40
2023-02-24T16:44:24.117Z,79.61
2023-02-24T16:47:05.129Z,80.36
2023-02-24T16:49:47.267Z,80.74
2023-02-24T16:52:30.193Z,81.15
2023-02-24T16:55:13.948Z,81.31
2023-02-24T16:57:55.094Z,81.46
2023-02-24T17:00:43.157Z,81.70
2023-02-24T17:03:22.728Z,81.87
2023-02-24T17:06:11.151Z,82.08
2023-02-24T17:08:47.925Z,81.79
2023-02-24T17:11:43.238Z,81.93
2023-02-24T17:14:27.117Z,82.08
2023-02-24T17:17:15.380Z,82.57
2023-02-24T17:19:58.195Z,82.95
2023-02-24T17:22:40.343Z,82.71
2023-02-24T17:25:25.176Z,82.79
2023-02-24T17:28:08.332Z,83.25
2023-02-24T17:30:49.237Z,83.48
2023-02-24T17:33:30.776Z,83.65
2023-02-24T17:36:13.120Z,83.59
2023-02-24T17:38:56.473Z,83.79
2023-02-24T17:41:39.173Z,83.91
2023-02-24T17:44:20.300Z,83.76
2023-02-24T17:47:01.198Z,83.68
2023-02-24T17:49:42.261Z,83.49
2023-02-24T17:52:24.113Z,83.69
2023-02-24T17:55:13.333Z,83.63
2023-02-24T17:57:47.576Z,83.86
2023-02-24T18:00:36.975Z,83.77
2023-02-24T18:03:12.399Z,83.71
2023-02-24T18:06:01.140Z,83.74
2023-02-24T18:08:44.102Z,83.54
2023-02-24T18:11:35.483Z,83.41
2023-02-24T18:14:13.411Z,83.43
2023-02-24T18:17:07.252Z,83.35
2023-02-24T18:19:49.981Z,83.23
2023-02-24T18:22:33.265Z,83.12
2023-02-24T18:25:21.215Z,82.97
2023-02-24T18:28:04.251Z,82.74
2023-02-24T18:30:46.339Z,82.73
2023-02-24T18:33:41.624Z,82.77
2023-02-24T18:36:19.934Z,82.78
2023-02-24T18:39:11.103Z,82.91
2023-02-24T18:41:45.614Z,82.84
2023-02-24T18:44:33.203Z,82.84
2023-02-24T18:47:10.337Z,82.80
2023-02-24T18:49:59.492Z,82.90
2023-02-24T18:52:34.987Z,82.97
2023-02-24T18:55:27.572Z,82.95
2023-02-24T18:58:02.997Z,82.88
2023-02-24T19:00:59.404Z,83.00
2023-02-24T19:03:41.151Z,83.04
2023-02-24T19:06:23.673Z,83.14
2023-02-24T19:09:16.200Z,83.10
2023-02-24T19:12:05.220Z,83.12
2023-02-24T19:14:46.220Z,82.85
2023-02-24T19:17:27.583Z,82.88
2023-02-24T19:20:09.136Z,82.65
2023-02-24T19:22:52.631Z,82.46
2023-02-24T19:25:35.164Z,82.24
2023-02-24T19:28:16.824Z,82.03
2023-02-24T19:32:15.245Z,81.97
2023-02-24T19:34:50.560Z,81.90
2023-02-24T19:37:38.100Z,81.69
2023-02-24T19:40:13.032Z,81.43
2023-02-24T19:43:01.134Z,81.04
2023-02-24T19:45:35.896Z,80.87
2023-02-24T19:48:24.163Z,80.71
2023-02-24T19:50:58.549Z,80.64
2023-02-24T19:53:46.097Z,80.51
2023-02-24T19:56:33.212Z,80.39
2023-02-24T19:59:22.103Z,80.20
2023-02-24T20:01:56.725Z,80.39
2023-02-24T20:04:46.369Z,80.27
2023-02-24T20:07:29.410Z,80.20
2023-02-24T20:10:13.530Z,80.09
2023-02-24T20:12:59.168Z,79.88
2023-02-24T20:15:43.246Z,79.81
2023-02-24T20:18:25.098Z,79.64
2023-02-24T20:21:14.157Z,79.38
2023-02-24T20:23:48.520Z,79.17
2023-02-24T20:26:36.124Z,78.98
2023-02-24T20:29:11.628Z,78.89
2023-02-24T20:32:00.226Z,79.20
2023-02-24T20:34:36.995Z,79.33
2023-02-24T20:37:26.218Z,79.61
2023-02-24T20:40:00.506Z,79.88
2023-02-24T20:42:48.088Z,80.10
2023-02-24T20:45:36.098Z,80.09
2023-02-24T20:48:11.227Z,79.99
2023-02-24T20:50:59.084Z,80.14
2023-02-24T20:53:36.418Z,80.34
2023-02-24T20:56:29.089Z,80.70
2023-02-24T20:59:06.266Z,80.80
2023-02-24T21:01:55.718Z,80.83
2023-02-24T21:04:37.145Z,80.68
2023-02-24T21:07:32.198Z,80.68
2023-02-24T21:10:29.096Z,80.51
2023-02-24T21:13:17.209Z,80.33
2023-02-24T21:16:06.176Z,80.35
2023-02-24T21:19:03.195Z,80.23
2023-02-24T21:21:51.089Z,80.19
2023-02-24T21:24:26.207Z,80.21
2023-02-24T21:27:14.089Z,80.12
2023-02-24T21:29:49.215Z,80.12
2023-02-24T21:32:37.174Z,80.07
2023-02-24T21:35:12.797Z,80.12
2023-02-24T21:38:01.068Z,80.09
2023-02-24T21:40:42.087Z,79.84
2023-02-24T21:43:37.068Z,80.03
2023-02-24T21:46:25.433Z,80.41
2023-02-24T21:49:02.269Z,80.57
2023-02-24T21:51:50.125Z,80.65
2023-02-24T21:54:33.220Z,80.74
2023-02-24T21:57:28.144Z,80.90
2023-02-24T22:00:25.082Z,80.95
2023-02-24T22:03:08.148Z,80.95
2023-02-24T22:06:03.086Z,80.80
2023-02-24T22:08:52.072Z,80.67
2023-02-24T22:11:28.254Z,80.59
2023-02-24T22:14:18.270Z,80.68
2023-02-24T22:17:00.268Z,80.65
2023-02-24T22:19:55.078Z,80.58
2023-02-24T22:22:47.168Z,80.44
2023-02-24T22:25:25.034Z,80.39
2023-02-24T22:28:14.081Z,80.62
2023-02-24T22:30:56.195Z,80.73
2023-02-24T22:33:49.080Z,80.87
2023-02-24T22:36:29.256Z,80.77
2023-02-24T22:39:17.196Z,80.64
2023-02-24T22:41:52.434Z,80.67
2023-02-24T22:44:41.092Z,80.64
2023-02-24T22:47:17.125Z,80.49
2023-02-24T22:50:05.116Z,80.43
2023-02-24T22:52:47.083Z,80.21
2023-02-24T22:55:42.066Z,79.80
2023-02-24T22:58:31.090Z,79.39
2023-02-24T23:01:06.251Z,79.15
2023-02-24T23:03:54.157Z,78.96
2023-02-24T23:06:38.076Z,78.75
2023-02-24T23:09:33.089Z,79.13
2023-02-24T23:12:22.080Z,79.19
2023-02-24T23:14:57.190Z,79.00
2023-02-24T23:17:45.092Z,78.28
2023-02-24T23:20:20.211Z,77.72
2023-02-24T23:23:09.282Z,77.56
2023-02-24T23:25:52.271Z,77.15
2023-02-24T23:28:42.137Z,77.28
2023-02-24T23:31:17.328Z,77.36
2023-02-24T23:34:05.059Z,77.43
2023-02-24T23:36:56.084Z,77.57
2023-02-24T23:39:30.464Z,77.50
2023-02-24T23:42:18.084Z,77.37
2023-02-24T23:44:52.908Z,77.47
2023-02-24T23:47:41.065Z,77.82
2023-02-24T23:50:22.216Z,78.29
2023-02-24T23:53:05.240Z,78.81
2023-02-24T23:55:47.072Z,79.30
2023-02-24T23:58:35.062Z,79.90
